createdAt,value
2023-02-21T00:05:10.373Z,24.30
2023-02-21T00:10:34.314Z,24.40
2023-02-21T00:15:54.895Z,24.30
2023-02-21T00:21:15.726Z,24.30
2023-02-21T00:26:37.813Z,24.30
2023-02-21T00:31:58.320Z,24.40
2023-02-21T00:37:19.075Z,24.30
2023-02-21T00:42:40.809Z,24.30
2023-02-21T00:48:01.442Z,24.30
2023-02-21T00:53:22.104Z,24.30
2023-02-21T00:58:43.986Z,24.30
2023-02-21T01:04:04.541Z,24.30
2023-02-21T01:09:25.040Z,24.20
2023-02-21T01:14:46.859Z,24.30
2023-02-21T01:20:07.490Z,24.30
2023-02-21T01:25:28.123Z,24.40
2023-02-21T01:30:50.030Z,24.40
2023-02-21T01:36:12.982Z,24.30
2023-02-21T01:41:33.885Z,24.30
2023-02-21T01:46:56.134Z,24.20
2023-02-21T01:52:18.504Z,24.20
2023-02-21T01:57:39.470Z,24.20
2023-02-21T02:03:07.567Z,24.30
2023-02-21T02:08:28.279Z,24.20
2023-02-21T02:13:46.983Z,24.30
2023-02-21T02:19:01.319Z,24.20
2023-02-21T02:24:41.624Z,24.20
2023-02-21T02:29:58.579Z,24.10
2023-02-21T02:35:06.761Z,24.10
2023-02-21T02:40:16.572Z,24.10
2023-02-21T02:45:22.789Z,24.10
2023-02-21T02:50:27.980Z,24.20
2023-02-21T02:55:39.133Z,24.20
2023-02-21T03:00:45.830Z,24.10
2023-02-21T03:06:02.292Z,24.10
2023-02-21T03:11:10.591Z,24.10
2023-02-21T03:16:19.347Z,24.00
2023-02-21T03:21:26.271Z,24.20
2023-02-21T03:26:31.750Z,24.10
2023-02-21T03:31:37.806Z,24.00
2023-02-21T03:36:43.171Z,24.00
2023-02-21T03:41:46.009Z,24.10
2023-02-21T03:46:48.942Z,24.10
2023-02-21T03:51:53.142Z,24.10
2023-02-21T03:56:56.013Z,24.10
2023-02-21T04:01:58.933Z,24.10
2023-02-21T04:07:03.346Z,24.00
2023-02-21T04:12:07.009Z,24.00
2023-02-21T04:17:10.011Z,24.00
2023-02-21T04:22:14.234Z,24.00
2023-02-21T04:27:17.753Z,24.10
2023-02-21T04:32:20.816Z,24.10
2023-02-21T04:37:25.149Z,24.10
2023-02-21T04:42:28.013Z,24.00
2023-02-21T04:47:30.845Z,24.00
2023-02-21T04:52:35.277Z,23.90
2023-02-21T04:57:38.134Z,24.00
2023-02-21T05:02:43.810Z,24.10
2023-02-21T05:07:48.279Z,24.10
2023-02-21T05:12:51.154Z,24.00
2023-02-21T05:17:54.018Z,24.00
2023-02-21T05:23:04.800Z,23.90
2023-02-21T05:28:14.755Z,23.90
2023-02-21T05:33:18.241Z,23.90
2023-02-21T05:38:23.642Z,24.00
2023-02-21T05:43:29.015Z,23.90
2023-02-21T05:48:31.959Z,24.00
2023-02-21T05:53:36.124Z,23.90
2023-02-21T05:58:39.333Z,24.00
2023-02-21T06:03:42.224Z,23.90
2023-02-21T06:08:48.182Z,23.80
2023-02-21T06:13:52.194Z,23.90
2023-02-21T06:18:56.395Z,23.90
2023-02-21T06:24:00.637Z,23.90
2023-02-21T06:29:03.462Z,23.90
2023-02-21T06:34:06.946Z,23.90
2023-02-21T06:39:13.157Z,23.90
2023-02-21T06:44:16.640Z,23.90
2023-02-21T06:49:19.716Z,23.90
2023-02-21T06:54:25.097Z,23.90
2023-02-21T06:59:28.586Z,24.00
2023-02-21T07:04:31.503Z,23.90
2023-02-21T07:09:35.734Z,24.00
2023-02-21T07:14:38.631Z,24.00
2023-02-21T07:19:42.188Z,23.90
2023-02-21T07:24:46.630Z,23.90
2023-02-21T07:29:49.741Z,23.90
2023-02-21T07:34:52.842Z,23.90
2023-02-21T07:39:57.203Z,24.00
2023-02-21T07:45:00.277Z,24.00
2023-02-21T07:50:03.199Z,24.00
2023-02-21T07:55:07.963Z,24.00
2023-02-21T08:00:11.763Z,23.90
2023-02-21T08:05:16.873Z,23.40
2023-02-21T08:10:23.423Z,23.00
2023-02-21T08:15:26.269Z,23.00
2023-02-21T08:20:29.395Z,23.50
2023-02-21T08:25:33.585Z,23.70
2023-02-21T08:30:37.583Z,24.00
2023-02-21T08:35:40.482Z,24.00
2023-02-21T08:40:45.410Z,23.60
2023-02-21T08:45:48.263Z,23.80
2023-02-21T08:50:52.143Z,23.70
2023-02-21T08:55:56.273Z,23.80
2023-02-21T09:00:59.165Z,23.80
2023-02-21T09:06:03.684Z,23.90
2023-02-21T09:11:08.380Z,23.90
2023-02-21T09:16:11.471Z,23.90
2023-02-21T09:21:15.520Z,23.80
2023-02-21T09:26:19.997Z,23.80
2023-02-21T09:31:22.868Z,23.60
2023-02-21T09:36:25.711Z,23.40
2023-02-21T09:41:29.922Z,23.30
2023-02-21T09:46:35.845Z,23.50
2023-02-21T09:51:41.690Z,23.60
2023-02-21T09:56:46.306Z,23.50
2023-02-21T10:01:57.251Z,23.50
2023-02-21T10:07:01.798Z,23.50
2023-02-21T10:12:13.966Z,23.50
2023-02-21T10:17:20.426Z,23.50
2023-02-21T10:22:25.344Z,23.70
2023-02-21T10:27:32.206Z,23.80
2023-02-21T10:32:35.276Z,23.80
2023-02-21T10:37:41.233Z,23.80
2023-02-21T10:42:54.456Z,23.80
2023-02-21T10:48:02.756Z,23.80
2023-02-21T10:53:05.856Z,23.80
2023-02-21T10:58:12.096Z,23.90
2023-02-21T11:03:22.944Z,23.90
2023-02-21T11:08:37.067Z,24.50
2023-02-21T11:13:41.230Z,24.90
2023-02-21T11:18:44.466Z,24.40
2023-02-21T11:23:50.711Z,24.30
2023-02-21T11:28:54.996Z,24.30
2023-02-21T11:33:59.813Z,24.20
2023-02-21T11:39:06.764Z,24.40
2023-02-21T11:44:33.816Z,24.30
2023-02-21T11:49:42.893Z,24.30
2023-02-21T11:54:46.070Z,24.20
2023-02-21T11:59:58.762Z,24.30
2023-02-21T12:05:12.235Z,24.10
2023-02-21T12:10:40.187Z,24.20
2023-02-21T12:15:57.414Z,24.20
2023-02-21T12:21:15.483Z,24.10
2023-02-21T12:26:33.063Z,24.20
2023-02-21T12:31:46.310Z,24.10
2023-02-21T12:36:59.055Z,24.60
2023-02-21T12:42:11.371Z,24.90
2023-02-21T12:47:21.286Z,25.20
2023-02-21T12:52:28.106Z,25.50
2023-02-21T12:57:37.187Z,25.10
2023-02-21T13:02:46.455Z,25.20
2023-02-21T13:07:53.581Z,25.10
2023-02-21T13:13:00.205Z,25.20
2023-02-21T13:18:08.611Z,25.20
2023-02-21T13:23:43.712Z,25.20
2023-02-21T13:28:46.752Z,25.10
2023-02-21T13:33:53.594Z,25.20
2023-02-21T13:39:03.454Z,25.30
2023-02-21T13:44:10.601Z,25.30
2023-02-21T13:49:42.757Z,25.30
2023-02-21T13:55:27.227Z,25.50
2023-02-21T14:00:52.009Z,25.40
2023-02-21T14:06:23.855Z,25.30
2023-02-21T14:11:28.789Z,25.30
2023-02-21T14:16:34.932Z,25.50
2023-02-21T14:21:41.989Z,25.50
2023-02-21T14:26:46.867Z,25.70
2023-02-21T14:31:55.573Z,25.60
2023-02-21T14:37:04.017Z,25.70
2023-02-21T14:42:35.114Z,25.60
2023-02-21T14:47:50.382Z,25.60
2023-02-21T14:53:09.179Z,25.60
2023-02-21T14:58:53.013Z,25.60
2023-02-21T15:04:03.056Z,25.70
2023-02-21T15:09:14.420Z,25.70
2023-02-21T15:14:23.711Z,25.80
2023-02-21T15:19:29.868Z,25.80
2023-02-21T15:24:34.024Z,25.80
2023-02-21T15:29:38.330Z,25.70
2023-02-21T15:34:42.848Z,25.80
2023-02-21T15:39:54.457Z,25.90
2023-02-21T15:44:59.986Z,25.90
2023-02-21T15:50:07.046Z,25.80
2023-02-21T15:55:31.817Z,25.70
2023-02-21T16:00:36.166Z,25.70
2023-02-21T16:05:39.013Z,25.70
2023-02-21T16:10:43.926Z,25.70
2023-02-21T16:15:47.456Z,25.30
2023-02-21T16:21:01.043Z,24.90
2023-02-21T16:26:27.973Z,24.70
2023-02-21T16:31:33.001Z,24.60
2023-02-21T16:36:39.266Z,24.60
2023-02-21T16:41:43.405Z,25.20
2023-02-21T16:46:47.006Z,25.60
2023-02-21T16:51:50.787Z,25.70
2023-02-21T16:56:55.228Z,25.70
2023-02-21T17:01:58.329Z,25.70
2023-02-21T17:07:03.768Z,25.70
2023-02-21T17:12:08.380Z,25.60
2023-02-21T17:17:11.298Z,25.60
2023-02-21T17:22:14.180Z,25.50
2023-02-21T17:27:18.638Z,25.50
2023-02-21T17:32:21.529Z,25.50
2023-02-21T17:37:24.546Z,25.50
2023-02-21T17:42:28.792Z,25.50
2023-02-21T17:47:31.629Z,25.50
2023-02-21T17:52:34.648Z,25.40
2023-02-21T17:57:40.687Z,25.40
2023-02-21T18:02:43.550Z,25.30
2023-02-21T18:07:48.317Z,25.50
2023-02-21T18:12:53.097Z,25.30
2023-02-21T18:17:56.086Z,25.30
2023-02-21T18:22:59.673Z,25.30
2023-02-21T18:28:04.275Z,25.30
2023-02-21T18:33:07.081Z,25.40
2023-02-21T18:38:09.881Z,25.30
2023-02-21T18:43:19.558Z,25.40
2023-02-21T18:48:23.268Z,25.30
2023-02-21T18:53:26.109Z,25.30
2023-02-21T18:58:30.339Z,25.40
2023-02-21T19:03:33.314Z,25.30
2023-02-21T19:08:36.180Z,25.30
2023-02-21T19:13:40.554Z,25.30
2023-02-21T19:18:43.351Z,25.20
2023-02-21T19:23:46.554Z,25.30
2023-02-21T19:28:50.733Z,25.30
2023-02-21T19:33:53.549Z,25.30
2023-02-21T19:38:56.644Z,25.30
2023-02-21T19:44:00.846Z,25.30
2023-02-21T19:49:06.853Z,25.20
2023-02-21T19:54:09.642Z,25.20
2023-02-21T19:59:14.298Z,25.20
2023-02-21T20:04:18.757Z,25.20
2023-02-21T20:09:21.792Z,25.20
2023-02-21T20:14:25.959Z,25.20
2023-02-21T20:19:30.081Z,25.20
2023-02-21T20:24:32.868Z,25.20
2023-02-21T20:29:37.017Z,25.10
2023-02-21T20:34:40.402Z,25.20
2023-02-21T20:39:43.240Z,25.20
2023-02-21T20:44:48.220Z,25.20
2023-02-21T20:49:51.165Z,25.20
2023-02-21T20:54:53.974Z,25.20
2023-02-21T20:59:59.067Z,25.20
2023-02-21T21:05:01.983Z,25.20
2023-02-21T21:10:07.095Z,25.10
2023-02-21T21:15:11.574Z,25.20
2023-02-21T21:20:17.719Z,25.20
2023-02-21T21:25:22.601Z,25.10
2023-02-21T21:30:27.305Z,25.10
2023-02-21T21:35:30.808Z,25.10
2023-02-21T21:40:33.758Z,25.10
2023-02-21T21:45:44.347Z,25.10
2023-02-21T21:50:47.349Z,25.10
2023-02-21T21:55:50.141Z,25.10
2023-02-21T22:00:54.562Z,25.20
2023-02-21T22:06:00.497Z,25.20
2023-02-21T22:11:03.597Z,25.10
2023-02-21T22:16:10.048Z,25.10
2023-02-21T22:21:14.089Z,25.10
2023-02-21T22:26:18.459Z,25.10
2023-02-21T22:31:23.794Z,25.10
2023-02-21T22:36:27.274Z,25.10
2023-02-21T22:41:32.569Z,25.10
2023-02-21T22:46:42.641Z,25.10
2023-02-21T22:51:45.512Z,25.00
2023-02-21T22:56:51.660Z,25.00
2023-02-21T23:01:58.346Z,25.00
2023-02-21T23:07:01.318Z,25.10
2023-02-21T23:12:05.819Z,25.00
2023-02-21T23:17:09.989Z,25.00
2023-02-21T23:22:12.907Z,25.00
2023-02-21T23:27:15.755Z,25.10
2023-02-21T23:32:19.961Z,25.10
2023-02-21T23:37:22.905Z,25.10
2023-02-21T23:42:25.735Z,25.00
2023-02-21T23:47:32.205Z,25.10
2023-02-21T23:52:35.034Z,25.00
2023-02-21T23:57:40.126Z,24.90
